Time;durP1;ratioP1;P1;durP2;ratioP2;P2;SDS_P1;SDS_P2;PMS_P1;PMS_P2;Temp;Humidity;BMP_temperature;BMP_pressure;BME280_temperature;BME280_humidity;BME280_pressure;Samples;Min_cycle;Max_cycle;Signal;HPM_P1;HPM_P2
2021/10/16 00:00:18;;;;;;;;;;;;;;;16.41;70.79;101947.31;5016999;28;846;-64
2021/10/16 00:02:43;;;;;;;;;;;;;;;16.40;70.58;101942.88;5017504;28;863;-64
2021/10/16 00:05:08;;;;;;;;;;;;;;;16.40;70.75;101950.09;5017303;28;1013;-64
2021/10/16 00:07:33;;;;;;;;;;;;;;;16.39;71.00;101953.75;5017167;28;918;-64
2021/10/16 00:09:58;;;;;;;;;;;;;;;16.38;70.96;101950.22;5016954;28;1914;-64
2021/10/16 00:12:23;;;;;;;;;;;;;;;16.38;70.69;101944.81;5016969;28;1068;-64
2021/10/16 00:14:48;;;;;;;;;;;;;;;16.36;70.85;101949.44;5017502;28;2033;-64
2021/10/16 00:17:13;;;;;;;;;;;;;;;16.36;70.99;101949.44;5017061;28;898;-66
2021/10/16 00:19:38;;;;;;;;;;;;;;;16.37;70.64;101953.00;5017255;28;1396;-65
2021/10/16 00:22:03;;;;;;;;;;;;;;;16.37;70.89;101944.94;5017004;28;1352;-65
2021/10/16 00:24:30;;;;;;;;;;;;;;;16.35;70.93;101953.09;5016792;28;1828;-65
2021/10/16 00:26:55;;;;;;;;;;;;;;;16.35;70.87;101949.56;5017220;28;797;-67
2021/10/16 00:29:20;;;;;;;;;;;;;;;16.35;70.77;101946.88;5017007;28;1953;-67
2021/10/16 00:31:45;;;;;;;;;;;;;;;16.32;70.92;101948.81;5016887;28;1072;-67
2021/10/16 00:34:10;;;;;;;;;;;;;;;16.35;71.03;101946.88;5017116;28;1767;-65
2021/10/16 00:36:35;;;;;;;;;;;;;;;16.31;70.92;101943.53;5028629;28;1720;-66
2021/10/16 00:39:00;;;;;;;;;;;;;;;16.33;70.63;101947.84;5056488;28;802;-65
2021/10/16 00:41:26;;;;;;;;;;;;;;;16.32;70.55;101945.25;5056565;28;1048;-65
2021/10/16 00:43:51;;;;;;;;;;;;;;;16.31;71.09;101938.16;5056651;28;783;-65
2021/10/16 00:46:16;;;;;;;;;;;;;;;16.32;71.00;101946.13;5056482;28;1001;-65
2021/10/16 00:48:41;;;;;;;;;;;;;;;16.31;70.95;101943.53;5056116;28;980;-64
2021/10/16 00:51:06;;;;;;;;;;;;;;;16.30;70.93;101942.66;5056264;28;1953;-64
2021/10/16 00:53:31;;;;;;;;;;;;;;;16.28;70.94;101941.94;5055597;28;1734;-64
2021/10/16 00:55:56;;;;;;;;;;;;;;;16.28;70.87;101939.25;5018879;28;1854;-63
2021/10/16 00:58:22;;;;;;;;;;;;;;;16.28;71.21;101939.25;5016597;28;1538;-63
2021/10/16 01:00:48;;;;;;;;;;;;;;;16.29;70.95;101930.22;5016413;28;923;-63
2021/10/16 01:03:13;;;;;;;;;;;;;;;16.29;70.88;101940.13;5016544;28;1788;-63
2021/10/16 01:05:38;;;;;;;;;;;;;;;16.28;70.88;101943.78;5016467;28;902;-62
2021/10/16 01:08:03;;;;;;;;;;;;;;;16.28;71.05;101941.94;5016432;28;859;-63
2021/10/16 01:10:28;;;;;;;;;;;;;;;16.28;70.95;101944.63;5015357;28;1918;-63
2021/10/16 01:12:53;;;;;;;;;;;;;;;16.26;71.24;101938.50;5016294;28;898;-63
2021/10/16 01:15:18;;;;;;;;;;;;;;;16.26;71.00;101937.66;5032930;28;1822;-63
2021/10/16 01:17:44;;;;;;;;;;;;;;;16.26;71.08;101932.25;5035724;28;842;-63
2021/10/16 01:20:09;;;;;;;;;;;;;;;16.23;71.07;101933.34;5035504;28;846;-63
2021/10/16 01:22:34;;;;;;;;;;;;;;;16.24;71.09;101932.38;5035830;28;1262;-63
2021/10/16 01:24:59;;;;;;;;;;;;;;;16.25;71.23;101925.16;5035578;28;1053;-66
2021/10/16 01:27:24;;;;;;;;;;;;;;;16.25;70.98;101928.72;5035943;28;1388;-66
2021/10/16 01:29:49;;;;;;;;;;;;;;;16.24;71.44;101924.31;5035492;28;1898;-66
2021/10/16 01:32:14;;;;;;;;;;;;;;;16.23;71.29;101933.34;5035835;28;1013;-66
2021/10/16 01:34:39;;;;;;;;;;;;;;;16.22;71.28;101911.94;5021987;28;1797;-66
2021/10/16 01:37:04;;;;;;;;;;;;;;;16.23;71.21;101921.72;5032557;28;1561;-66
2021/10/16 01:39:30;;;;;;;;;;;;;;;16.22;71.13;101918.16;5055366;28;1477;-66
2021/10/16 01:41:56;;;;;;;;;;;;;;;16.22;71.15;101922.69;5055726;28;751;-66
2021/10/16 01:44:21;;;;;;;;;;;;;;;16.21;71.27;101919.13;5054907;28;771;-65
2021/10/16 01:46:46;;;;;;;;;;;;;;;16.21;70.90;101916.44;5055054;28;934;-65
2021/10/16 01:49:11;;;;;;;;;;;;;;;16.20;71.15;101914.72;5055229;28;799;-65
2021/10/16 01:51:36;;;;;;;;;;;;;;;16.19;71.32;101914.84;5054872;28;1898;-65
2021/10/16 01:54:01;;;;;;;;;;;;;;;16.18;71.43;101905.91;5033944;28;1901;-65
2021/10/16 01:56:26;;;;;;;;;;;;;;;16.20;71.19;101909.34;5035441;28;998;-65
2021/10/16 01:58:51;;;;;;;;;;;;;;;16.17;71.42;101906.88;5035189;28;1562;-65
2021/10/16 02:01:16;;;;;;;;;;;;;;;16.17;71.24;101909.56;5034997;28;1182;-65
2021/10/16 02:03:42;;;;;;;;;;;;;;;16.18;71.02;101911.28;5034952;28;942;-65
2021/10/16 02:06:07;;;;;;;;;;;;;;;16.18;71.46;101911.28;5035009;28;819;-65
2021/10/16 02:08:32;;;;;;;;;;;;;;;16.16;71.18;101912.34;5034894;28;1286;-64
2021/10/16 02:10:57;;;;;;;;;;;;;;;16.17;71.71;101914.06;5034892;28;1910;-65
2021/10/16 02:13:22;;;;;;;;;;;;;;;16.15;71.52;101910.63;5034530;28;1856;-65
2021/10/16 02:15:47;;;;;;;;;;;;;;;16.17;71.65;101909.56;5035066;28;974;-65
2021/10/16 02:18:12;;;;;;;;;;;;;;;16.14;71.44;101912.47;5034918;28;1159;-65
2021/10/16 02:20:37;;;;;;;;;;;;;;;16.13;71.67;101907.19;5034774;28;1036;-63
2021/10/16 02:23:02;;;;;;;;;;;;;;;16.13;71.27;101905.38;5034673;28;1241;-64
2021/10/16 02:25:27;;;;;;;;;;;;;;;16.15;71.58;101907.94;5034756;28;1296;-64
2021/10/16 02:27:52;;;;;;;;;;;;;;;16.14;71.43;101909.78;5034656;28;981;-65
2021/10/16 02:30:17;;;;;;;;;;;;;;;16.14;71.25;101909.78;5034571;28;2002;-64
2021/10/16 02:32:43;;;;;;;;;;;;;;;16.13;71.22;101902.66;5034910;28;2031;-65
2021/10/16 02:35:08;;;;;;;;;;;;;;;16.13;71.75;101902.66;5022188;28;12272;-65
2021/10/16 02:37:33;;;;;;;;;;;;;;;16.13;71.35;101902.66;5035024;28;1468;-64
2021/10/16 02:39:58;;;;;;;;;;;;;;;16.13;71.63;101902.66;5035055;28;819;-64
2021/10/16 02:42:23;;;;;;;;;;;;;;;16.11;71.50;101899.25;5034735;28;839;-65
2021/10/16 02:44:49;;;;;;;;;;;;;;;16.11;71.62;101893.88;5034808;28;948;-65
2021/10/16 02:47:14;;;;;;;;;;;;;;;16.11;71.40;101904.63;5034696;28;933;-65
2021/10/16 02:49:39;;;;;;;;;;;;;;;16.10;71.35;101897.53;5033681;28;1922;-64
2021/10/16 02:52:04;;;;;;;;;;;;;;;16.10;71.30;101900.22;5034287;28;1065;-64
2021/10/16 02:54:29;;;;;;;;;;;;;;;16.10;71.26;101900.22;5034574;28;942;-65
2021/10/16 02:56:54;;;;;;;;;;;;;;;16.09;71.45;101906.56;5034502;28;828;-65
2021/10/16 02:59:19;;;;;;;;;;;;;;;16.08;71.47;101904.84;5034248;28;1505;-65
2021/10/16 03:01:44;;;;;;;;;;;;;;;16.08;71.65;101912.91;5034580;28;856;-64
2021/10/16 03:04:09;;;;;;;;;;;;;;;16.08;71.54;101906.69;5034497;28;1104;-64
2021/10/16 03:06:35;;;;;;;;;;;;;;;16.06;71.91;101903.25;5034453;28;913;-65
2021/10/16 03:09:00;;;;;;;;;;;;;;;16.07;71.44;101905.81;5016691;28;1881;-64
2021/10/16 03:11:25;;;;;;;;;;;;;;;16.08;71.40;101912.91;5034403;28;1960;-64
2021/10/16 03:13:50;;;;;;;;;;;;;;;16.07;71.80;101913.88;5034396;28;760;-64
2021/10/16 03:16:16;;;;;;;;;;;;;;;16.06;71.41;101917.53;5034166;28;1005;-64
2021/10/16 03:18:41;;;;;;;;;;;;;;;16.06;71.51;101912.16;5034416;28;1023;-64
2021/10/16 03:21:07;;;;;;;;;;;;;;;16.05;71.71;101918.50;5034202;28;775;-64
2021/10/16 03:23:32;;;;;;;;;;;;;;;16.04;71.69;101911.41;5034222;28;1354;-64
2021/10/16 03:25:57;;;;;;;;;;;;;;;16.03;71.71;101909.69;5034210;28;1650;-64
2021/10/16 03:28:22;;;;;;;;;;;;;;;16.05;71.61;101909.59;5033900;28;1457;-63
2021/10/16 03:30:47;;;;;;;;;;;;;;;16.05;71.77;101909.59;5034029;28;1961;-63
2021/10/16 03:33:12;;;;;;;;;;;;;;;16.04;71.97;101908.72;5034303;28;1264;-63
2021/10/16 03:35:37;;;;;;;;;;;;;;;16.02;71.86;101902.59;5038352;28;1177;-63
2021/10/16 03:38:02;;;;;;;;;;;;;;;16.03;72.22;101904.31;5037616;28;1558;-63
2021/10/16 03:40:27;;;;;;;;;;;;;;;16.02;71.48;101899.03;5037588;28;1005;-63
2021/10/16 03:42:52;;;;;;;;;;;;;;;16.01;71.70;101894.63;5037715;28;957;-64
2021/10/16 03:45:17;;;;;;;;;;;;;;;16.00;71.57;101891.09;5037504;28;811;-63
2021/10/16 03:47:42;;;;;;;;;;;;;;;16.01;71.58;101895.50;5037283;28;1743;-64
2021/10/16 03:50:07;;;;;;;;;;;;;;;15.99;71.49;101894.72;5037485;28;1978;-64
2021/10/16 03:52:32;;;;;;;;;;;;;;;16.00;72.02;101891.09;5019715;28;832;-64
2021/10/16 03:54:58;;;;;;;;;;;;;;;16.00;71.90;101896.47;5037317;28;1073;-64
2021/10/16 03:57:23;;;;;;;;;;;;;;;16.00;71.97;101896.47;5036400;28;2084;-64
2021/10/16 03:59:48;;;;;;;;;;;;;;;16.00;71.52;101895.59;5037463;28;1466;-64
2021/10/16 04:02:13;;;;;;;;;;;;;;;16.00;71.52;101901.84;5037009;28;1068;-64
2021/10/16 04:04:38;;;;;;;;;;;;;;;16.00;71.80;101890.22;5037099;28;1337;-64
2021/10/16 04:07:03;;;;;;;;;;;;;;;15.97;71.86;101893.97;5036548;28;1509;-64
2021/10/16 04:09:28;;;;;;;;;;;;;;;15.97;71.46;101894.84;5037432;28;1956;-64
2021/10/16 04:11:54;;;;;;;;;;;;;;;15.98;71.49;101896.56;5036763;28;859;-64
2021/10/16 04:14:19;;;;;;;;;;;;;;;15.98;71.58;101901.09;5037589;28;831;-64
2021/10/16 04:16:44;;;;;;;;;;;;;;;15.97;71.72;101902.91;5036741;28;1021;-64
2021/10/16 04:19:09;;;;;;;;;;;;;;;15.94;71.87;101895.06;5036875;28;1346;-65
2021/10/16 04:21:34;;;;;;;;;;;;;;;15.94;71.73;101886.16;5036697;28;1276;-65
2021/10/16 04:23:59;;;;;;;;;;;;;;;15.94;71.94;101886.16;5036666;28;1075;-65
2021/10/16 04:26:24;;;;;;;;;;;;;;;15.94;71.94;101886.16;5019171;28;1881;-65
2021/10/16 04:28:50;;;;;;;;;;;;;;;15.93;71.86;101887.13;5036879;28;1816;-64
2021/10/16 04:31:15;;;;;;;;;;;;;;;15.93;71.74;101896.06;5036809;28;1947;-64
2021/10/16 04:33:40;;;;;;;;;;;;;;;15.92;71.69;101893.47;5036583;28;1241;-64
2021/10/16 04:36:05;;;;;;;;;;;;;;;15.93;71.98;101905.94;5036705;28;1521;-66
2021/10/16 04:38:30;;;;;;;;;;;;;;;15.93;71.98;101905.94;5036719;28;878;-66
2021/10/16 04:40:55;;;;;;;;;;;;;;;15.92;71.75;101904.22;5036758;28;843;-66
2021/10/16 04:43:20;;;;;;;;;;;;;;;15.92;71.90;101898.84;5036358;28;838;-66
2021/10/16 04:45:45;;;;;;;;;;;;;;;15.90;71.69;101901.63;5036472;28;1675;-64
2021/10/16 04:48:10;;;;;;;;;;;;;;;15.91;71.50;101905.19;5035701;28;1800;-65
2021/10/16 04:50:35;;;;;;;;;;;;;;;15.90;71.76;101908.84;5036114;28;1981;-65
2021/10/16 04:53:00;;;;;;;;;;;;;;;15.90;72.01;101895.41;5036022;28;917;-64
2021/10/16 04:55:26;;;;;;;;;;;;;;;15.89;71.50;101899.91;5036099;28;874;-64
2021/10/16 04:57:51;;;;;;;;;;;;;;;15.89;72.16;101904.44;5036254;28;1065;-64
2021/10/16 05:00:16;;;;;;;;;;;;;;;15.87;71.56;101904.53;5018286;28;1861;-64
2021/10/16 05:02:41;;;;;;;;;;;;;;;15.89;72.14;101902.59;5036051;28;930;-64
2021/10/16 05:05:06;;;;;;;;;;;;;;;15.88;71.77;101900.03;5035989;28;1331;-64
2021/10/16 05:07:31;;;;;;;;;;;;;;;15.87;71.82;101898.31;5035611;28;1682;-64
2021/10/16 05:09:56;;;;;;;;;;;;;;;15.89;72.10;101899.06;5036022;28;1898;-64
2021/10/16 05:12:21;;;;;;;;;;;;;;;15.87;71.89;101893.78;5035943;28;1021;-64
2021/10/16 05:14:46;;;;;;;;;;;;;;;15.86;71.71;101897.44;5035857;28;1579;-64
2021/10/16 05:17:11;;;;;;;;;;;;;;;15.87;71.56;101901.00;5035836;28;833;-64
2021/10/16 05:19:36;;;;;;;;;;;;;;;15.86;72.16;101901.94;5035690;28;1021;-63
2021/10/16 05:22:01;;;;;;;;;;;;;;;15.86;71.92;101894.75;5035334;28;1773;-64
2021/10/16 05:24:26;;;;;;;;;;;;;;;15.86;71.97;101900.13;5035820;28;1033;-63
2021/10/16 05:26:52;;;;;;;;;;;;;;;15.86;71.97;101899.25;5035652;28;1793;-64
2021/10/16 05:29:17;;;;;;;;;;;;;;;15.85;71.71;101898.41;5035439;28;1025;-65
2021/10/16 05:31:42;;;;;;;;;;;;;;;15.85;71.76;101897.53;5035573;28;1901;-65
2021/10/16 05:34:07;;;;;;;;;;;;;;;15.85;71.56;101894.84;5035361;28;1602;-64
2021/10/16 05:36:32;;;;;;;;;;;;;;;15.83;71.86;101892.28;5035625;28;1470;-64
2021/10/16 05:38:57;;;;;;;;;;;;;;;15.83;71.69;101899.47;5029323;28;2303;-65
2021/10/16 05:41:22;;;;;;;;;;;;;;;15.83;72.00;101894.97;5020863;28;2125;-64
2021/10/16 05:43:47;;;;;;;;;;;;;;;15.84;72.03;101899.38;5017441;28;1706;-67
2021/10/16 05:46:12;;;;;;;;;;;;;;;15.86;71.80;101896.56;5019895;28;1699;-66
2021/10/16 05:48:37;;;;;;;;;;;;;;;15.84;71.85;101894.00;5017837;28;1657;-66
2021/10/16 05:51:02;;;;;;;;;;;;;;;15.85;71.73;101892.16;5015752;28;1910;-67
2021/10/16 05:53:27;;;;;;;;;;;;;;;15.84;71.82;101893.13;5019859;28;1575;-66
2021/10/16 05:55:53;;;;;;;;;;;;;;;15.84;72.26;101893.13;5016953;28;1623;-67
2021/10/16 05:58:18;;;;;;;;;;;;;;;15.86;71.80;101891.19;5020184;28;1732;-66
2021/10/16 06:00:43;;;;;;;;;;;;;;;15.86;71.81;101891.19;5018102;28;1830;-65
2021/10/16 06:03:08;;;;;;;;;;;;;;;15.85;71.85;101886.78;5023601;28;1702;-65
2021/10/16 06:05:33;;;;;;;;;;;;;;;15.84;72.05;101887.75;5025368;28;1767;-66
2021/10/16 06:07:58;;;;;;;;;;;;;;;15.84;71.69;101893.13;5021881;28;1521;-66
2021/10/16 06:10:23;;;;;;;;;;;;;;;15.84;71.84;101890.44;5015123;28;1894;-65
2021/10/16 06:12:48;;;;;;;;;;;;;;;15.83;71.96;101896.78;5023695;28;1720;-65
2021/10/16 06:15:13;;;;;;;;;;;;;;;15.84;71.96;101890.44;5021607;28;1881;-66
2021/10/16 06:17:38;;;;;;;;;;;;;;;15.84;72.14;101890.44;5016273;28;1713;-65
2021/10/16 06:20:03;;;;;;;;;;;;;;;15.83;72.21;101888.72;5027144;28;1899;-64
2021/10/16 06:22:31;;;;;;;;;;;;;;;15.83;71.93;101894.09;5028651;28;1665;-64
2021/10/16 06:24:56;;;;;;;;;;;;;;;15.83;71.89;101889.59;5015989;28;1725;-64
2021/10/16 06:27:23;;;;;;;;;;;;;;;15.83;71.72;101894.09;5016966;28;1603;-65
2021/10/16 06:29:48;;;;;;;;;;;;;;;15.90;72.32;101900.78;5018679;28;2052;-65
2021/10/16 06:32:13;;;;;;;;;;;;;;;16.01;74.00;101900.88;5033155;28;1890;-65
2021/10/16 06:34:38;;;;;;;;;;;;;;;16.08;75.43;101895.94;5021042;28;2000;-65
2021/10/16 06:37:05;;;;;;;;;;;;;;;16.05;75.22;101899.69;5034539;28;1908;-66
2021/10/16 06:39:30;;;;;;;;;;;;;;;16.04;75.06;101900.66;5034851;28;1795;-66
2021/10/16 06:41:55;;;;;;;;;;;;;;;15.98;75.52;101911.84;5030085;28;1998;-65
2021/10/16 06:44:20;;;;;;;;;;;;;;;15.95;75.36;101899.47;5027619;28;1765;-65
2021/10/16 06:46:45;;;;;;;;;;;;;;;15.95;74.94;101899.47;5034758;28;1759;-66
2021/10/16 06:49:10;;;;;;;;;;;;;;;15.94;74.71;101907.66;5030068;28;1756;-66
2021/10/16 06:51:36;;;;;;;;;;;;;;;15.94;73.77;101913.03;5018468;28;2043;-66
2021/10/16 06:54:02;;;;;;;;;;;;;;;15.91;73.77;101900.66;5014872;28;1634;-65
2021/10/16 06:56:27;;;;;;;;;;;;;;;15.90;74.02;101904.31;5015331;28;812;-65
2021/10/16 06:58:52;;;;;;;;;;;;;;;15.90;73.95;101914.22;5023348;28;1607;-65
2021/10/16 07:01:18;;;;;;;;;;;;;;;15.88;73.72;101908.09;5034237;28;1626;-66
2021/10/16 07:03:43;;;;;;;;;;;;;;;15.88;73.76;101910.78;5033171;28;1480;-67
2021/10/16 07:06:08;;;;;;;;;;;;;;;15.87;73.58;101909.06;5033337;28;1635;-66
2021/10/16 07:08:33;;;;;;;;;;;;;;;15.87;73.42;101904.53;5034180;28;1735;-67
2021/10/16 07:10:58;;;;;;;;;;;;;;;15.87;73.42;101901.00;5037530;28;1957;-64
2021/10/16 07:13:24;;;;;;;;;;;;;;;15.87;73.34;101911.75;5038166;28;790;-65
2021/10/16 07:15:49;;;;;;;;;;;;;;;15.87;73.04;101898.31;5038262;28;843;-64
2021/10/16 07:18:14;;;;;;;;;;;;;;;15.85;73.26;101903.78;5037809;28;922;-64
2021/10/16 07:20:39;;;;;;;;;;;;;;;15.84;73.06;101906.56;5037768;28;1460;-63
2021/10/16 07:23:06;;;;;;;;;;;;;;;15.86;73.40;101918.09;5037442;28;1461;-63
2021/10/16 07:25:31;;;;;;;;;;;;;;;15.85;73.21;101910.97;5016744;28;1613;-63
2021/10/16 07:27:56;;;;;;;;;;;;;;;15.85;73.07;101913.69;5029225;28;1801;-64
2021/10/16 07:30:21;;;;;;;;;;;;;;;15.84;73.18;101917.31;5037169;28;1898;-64
2021/10/16 07:32:46;;;;;;;;;;;;;;;15.86;72.90;101915.41;5036646;28;1786;-63
2021/10/16 07:35:11;;;;;;;;;;;;;;;15.86;72.64;101910.03;5036260;28;2138;-63
2021/10/16 07:37:36;;;;;;;;;;;;;;;15.84;72.70;101920.88;5033903;28;1678;-63
2021/10/16 07:40:01;;;;;;;;;;;;;;;15.86;72.97;101928.84;5036670;28;1474;-64
2021/10/16 07:42:26;;;;;;;;;;;;;;;15.87;72.82;101931.41;5036206;28;1582;-64
2021/10/16 07:44:51;;;;;;;;;;;;;;;15.86;72.57;101926.16;5036559;28;1632;-65
2021/10/16 07:47:16;;;;;;;;;;;;;;;15.87;73.06;101923.34;5036955;28;1623;-65
2021/10/16 07:49:41;;;;;;;;;;;;;;;15.89;72.67;101932.19;5037575;28;1981;-63
2021/10/16 07:52:06;;;;;;;;;;;;;;;15.90;72.76;101933.03;5037902;28;989;-64
2021/10/16 07:54:41;;;;;;;;;;;;;;;15.93;72.67;101922.06;5037368;28;858;-66
2021/10/16 07:57:06;;;;;;;;;;;;;;;15.93;72.42;101925.63;5037628;28;914;-60
2021/10/16 07:59:31;;;;;;;;;;;;;;;15.93;72.78;101927.44;5037588;28;890;-64
2021/10/16 08:01:56;;;;;;;;;;;;;;;15.90;72.59;101927.66;5037602;28;945;-64
2021/10/16 08:04:21;;;;;;;;;;;;;;;15.89;72.93;101929.50;5036787;28;1515;-64
2021/10/16 08:06:46;;;;;;;;;;;;;;;15.89;72.80;101920.56;5036861;28;1589;-65
2021/10/16 08:09:11;;;;;;;;;;;;;;;15.88;73.17;101918.84;5036766;28;1752;-65
2021/10/16 08:11:36;;;;;;;;;;;;;;;15.89;72.74;101921.41;5032104;28;1957;-65
2021/10/16 08:14:02;;;;;;;;;;;;;;;15.89;72.76;101925.94;5030327;28;1387;-65
2021/10/16 08:16:27;;;;;;;;;;;;;;;15.93;73.14;101938.22;5027033;28;1239;-65
2021/10/16 08:18:52;;;;;;;;;;;;;;;15.97;72.84;101920.88;5023235;28;1337;-64
2021/10/16 08:21:17;;;;;;;;;;;;;;;15.97;72.59;101937.00;5033229;28;1252;-64
2021/10/16 08:23:42;;;;;;;;;;;;;;;15.99;73.14;101927.00;5020694;28;1465;-64
2021/10/16 08:26:07;;;;;;;;;;;;;;;15.98;72.64;101936.88;5025457;28;1615;-64
2021/10/16 08:28:32;;;;;;;;;;;;;;;15.98;73.00;101939.59;5007884;28;1467;-64
2021/10/16 08:30:57;;;;;;;;;;;;;;;15.96;72.67;101946.03;5030838;28;1898;-65
2021/10/16 08:33:22;;;;;;;;;;;;;;;15.94;73.00;101938.06;5018274;28;1444;-65
2021/10/16 08:35:47;;;;;;;;;;;;;;;15.92;72.51;101937.34;5031595;28;1498;-64
2021/10/16 08:38:13;;;;;;;;;;;;;;;15.91;72.54;101940.13;5026180;28;1554;-64
2021/10/16 08:40:38;;;;;;;;;;;;;;;15.93;72.88;101946.28;5026083;28;1464;-65
2021/10/16 08:43:03;;;;;;;;;;;;;;;15.92;72.77;101947.25;5035071;28;1528;-65
2021/10/16 08:45:28;;;;;;;;;;;;;;;15.91;73.08;101941.00;5032126;28;1784;-64
2021/10/16 08:47:53;;;;;;;;;;;;;;;15.89;72.59;101942.94;5035629;28;1852;-64
2021/10/16 08:50:18;;;;;;;;;;;;;;;15.90;72.55;101952.72;5035411;28;1963;-64
2021/10/16 08:52:43;;;;;;;;;;;;;;;15.89;72.35;101951.00;5019913;28;1457;-64
2021/10/16 08:55:15;;;;;;;;;;;;;;;15.89;72.66;101959.06;5035396;28;1452;-63
2021/10/16 08:57:42;;;;;;;;;;;;;;;15.88;72.83;101957.34;5028608;28;1536;-64
2021/10/16 09:00:10;;;;;;;;;;;;;;;15.89;72.78;101952.81;5019060;28;1434;-64
2021/10/16 09:02:35;;;;;;;;;;;;;;;15.88;72.64;101960.03;5030404;28;1392;-64
2021/10/16 09:05:00;;;;;;;;;;;;;;;15.88;72.72;101953.78;5015920;28;1488;-64
2021/10/16 09:07:26;;;;;;;;;;;;;;;15.88;72.77;101969.91;5020785;28;1457;-64
2021/10/16 09:09:51;;;;;;;;;;;;;;;15.87;72.91;101961.00;5031371;28;1959;-63
2021/10/16 09:12:16;;;;;;;;;;;;;;;15.87;72.76;101962.81;5035065;28;1789;-63
2021/10/16 09:14:41;;;;;;;;;;;;;;;15.86;72.48;101963.78;5034143;28;1968;-64
2021/10/16 09:17:06;;;;;;;;;;;;;;;15.86;72.50;101969.16;5034918;28;1572;-64
2021/10/16 09:19:31;;;;;;;;;;;;;;;15.86;72.44;101959.25;5034295;28;1547;-66
2021/10/16 09:21:56;;;;;;;;;;;;;;;15.86;72.53;101963.78;5034603;28;1822;-65
2021/10/16 09:24:21;;;;;;;;;;;;;;;15.85;72.26;101962.91;5034676;28;1722;-64
2021/10/16 09:26:46;;;;;;;;;;;;;;;15.86;72.45;101963.78;5034734;28;1764;-64
2021/10/16 09:29:12;;;;;;;;;;;;;;;15.86;72.40;101963.78;5034644;28;1825;-64
2021/10/16 09:31:37;;;;;;;;;;;;;;;15.87;72.51;101965.50;5032424;28;1902;-65
2021/10/16 09:34:02;;;;;;;;;;;;;;;15.87;72.84;101961.00;5034434;28;1652;-65
2021/10/16 09:36:27;;;;;;;;;;;;;;;15.88;72.79;101959.16;5034490;28;1737;-65
2021/10/16 09:38:52;;;;;;;;;;;;;;;15.88;72.45;101951.97;5018491;28;1441;-64
2021/10/16 09:41:17;;;;;;;;;;;;;;;15.89;72.46;101952.81;5034251;28;1735;-64
2021/10/16 09:43:42;;;;;;;;;;;;;;;15.89;72.56;101955.50;5034582;28;1769;-64
2021/10/16 09:46:07;;;;;;;;;;;;;;;15.90;72.68;101959.91;5034446;28;1924;-64
2021/10/16 09:48:36;;;;;;;;;;;;;;;15.90;72.63;101958.09;5030608;28;2058;-64
2021/10/16 09:51:02;;;;;;;;;;;;;;;15.90;72.43;101955.41;5032991;28;2124;-64
2021/10/16 09:53:27;;;;;;;;;;;;;;;15.92;72.24;101958.84;5030887;28;1445;-63
2021/10/16 09:55:52;;;;;;;;;;;;;;;15.94;72.74;101956.88;5033922;28;1782;-64
2021/10/16 09:58:18;;;;;;;;;;;;;;;15.93;72.47;101959.72;5033439;28;1710;-63
2021/10/16 10:00:43;;;;;;;;;;;;;;;15.93;72.22;101968.63;5033888;28;1899;-65
2021/10/16 10:03:08;;;;;;;;;;;;;;;15.94;72.60;101966.81;5031922;28;1865;-65
2021/10/16 10:05:33;;;;;;;;;;;;;;;15.93;72.17;101970.47;5023466;28;1729;-64
2021/10/16 10:07:59;;;;;;;;;;;;;;;15.97;72.38;101967.44;5032022;28;1699;-64
2021/10/16 10:10:24;;;;;;;;;;;;;;;16.00;71.99;101960.97;5034085;28;1906;-65
2021/10/16 10:12:49;;;;;;;;;;;;;;;15.99;72.17;101967.31;5033755;28;1809;-64
2021/10/16 10:15:14;;;;;;;;;;;;;;;15.96;72.37;101965.72;5033612;28;1608;-64
2021/10/16 10:17:39;;;;;;;;;;;;;;;15.95;72.10;101963.13;5033648;28;1726;-64
2021/10/16 10:20:04;;;;;;;;;;;;;;;15.95;72.58;101966.69;5027958;28;2019;-64
2021/10/16 10:22:29;;;;;;;;;;;;;;;15.95;72.60;101971.19;5033548;28;1371;-64
2021/10/16 10:24:54;;;;;;;;;;;;;;;15.95;72.60;101966.69;5033328;28;1454;-65
2021/10/16 10:27:20;;;;;;;;;;;;;;;15.95;72.23;101966.69;5033445;28;1713;-66
2021/10/16 10:29:49;;;;;;;;;;;;;;;15.95;71.93;101964.00;5033697;28;1960;-65
2021/10/16 10:32:14;;;;;;;;;;;;;;;15.96;72.65;101970.22;5027860;28;1641;-65
2021/10/16 10:34:41;;;;;;;;;;;;;;;15.97;71.84;101964.75;5033025;28;1784;-65
2021/10/16 10:37:07;;;;;;;;;;;;;;;15.98;72.43;101960.22;5028410;28;1698;-65
2021/10/16 10:39:32;;;;;;;;;;;;;;;15.97;72.22;101959.38;5015095;28;1734;-64
2021/10/16 10:41:57;;;;;;;;;;;;;;;16.00;72.08;101960.97;5034491;28;924;-65
2021/10/16 10:44:22;;;;;;;;;;;;;;;16.00;71.92;101963.66;5038101;28;1075;-63
2021/10/16 10:46:47;;;;;;;;;;;;;;;16.01;72.41;101953.78;5037599;28;1722;-65
2021/10/16 10:49:14;;;;;;;;;;;;;;;16.02;71.48;101959.06;5037776;28;1896;-66
2021/10/16 10:51:39;;;;;;;;;;;;;;;16.04;71.58;101954.44;5031403;28;1972;-66
2021/10/16 10:54:04;;;;;;;;;;;;;;;16.05;71.90;101949.91;5037660;28;1688;-64
2021/10/16 10:56:29;;;;;;;;;;;;;;;16.07;71.73;101946.16;5037230;28;1609;-64
2021/10/16 10:58:58;;;;;;;;;;;;;;;16.07;71.76;101940.78;5037171;28;1611;-64
2021/10/16 11:01:23;;;;;;;;;;;;;;;16.09;71.87;101944.22;5037627;28;1610;-65
2021/10/16 11:03:48;;;;;;;;;;;;;;;16.09;71.61;101933.47;5037531;28;1675;-65
2021/10/16 11:06:13;;;;;;;;;;;;;;;16.10;71.72;101937.00;5037416;28;1747;-65
2021/10/16 11:08:38;;;;;;;;;;;;;;;16.12;71.58;101938.59;5037476;28;1577;-65
2021/10/16 11:11:04;;;;;;;;;;;;;;;16.13;71.61;101929.56;5037305;28;1959;-65
2021/10/16 11:13:29;;;;;;;;;;;;;;;16.14;71.84;101933.97;5037494;28;1784;-65
2021/10/16 11:15:54;;;;;;;;;;;;;;;16.17;71.26;101930.22;5024022;28;1843;-65
2021/10/16 11:18:19;;;;;;;;;;;;;;;16.16;71.70;101929.34;5037242;28;1424;-65
2021/10/16 11:20:44;;;;;;;;;;;;;;;16.14;71.77;101936.66;5038049;28;997;-65
2021/10/16 11:23:09;;;;;;;;;;;;;;;16.15;71.98;101935.69;5037969;28;1354;-65
2021/10/16 11:25:34;;;;;;;;;;;;;;;16.16;71.75;101937.41;5024349;28;1667;-65
2021/10/16 11:27:59;;;;;;;;;;;;;;;16.16;71.67;101934.72;5036995;28;1627;-65
2021/10/16 11:30:24;;;;;;;;;;;;;;;16.14;71.82;101936.66;5038224;28;1894;-65
2021/10/16 11:32:49;;;;;;;;;;;;;;;16.16;71.78;101941.94;5037861;28;1749;-65
2021/10/16 11:35:15;;;;;;;;;;;;;;;16.18;71.41;101931.94;5036828;28;2409;-65
2021/10/16 11:37:41;;;;;;;;;;;;;;;16.18;71.38;101932.78;5037225;28;1728;-65
2021/10/16 11:40:06;;;;;;;;;;;;;;;16.19;71.76;101931.81;5037225;28;1868;-65
2021/10/16 11:42:31;;;;;;;;;;;;;;;16.18;71.83;101926.56;5036876;28;1852;-65
2021/10/16 11:44:56;;;;;;;;;;;;;;;16.18;71.57;101919.34;5036328;28;1702;-65
2021/10/16 11:47:21;;;;;;;;;;;;;;;16.19;71.82;101921.06;5037655;28;1551;-64
2021/10/16 11:49:46;;;;;;;;;;;;;;;16.18;71.79;101911.28;5037071;28;1910;-64
2021/10/16 11:52:11;;;;;;;;;;;;;;;16.22;71.09;101899.34;5037173;28;1562;-63
2021/10/16 11:54:37;;;;;;;;;;;;;;;16.26;71.21;101902.69;5036346;28;1546;-64
2021/10/16 11:57:02;;;;;;;;;;;;;;;16.28;71.63;101898.91;5037380;28;1009;-63
2021/10/16 11:59:27;;;;;;;;;;;;;;;16.31;71.30;101898.66;5037599;28;1288;-63
2021/10/16 12:01:52;;;;;;;;;;;;;;;16.33;71.34;101903.94;5037253;28;1644;-64
2021/10/16 12:04:17;;;;;;;;;;;;;;;16.35;71.24;101895.75;5036680;28;1529;-63
2021/10/16 12:06:42;;;;;;;;;;;;;;;16.36;71.36;101898.34;5035588;28;1565;-64
2021/10/16 12:09:12;;;;;;;;;;;;;;;16.38;71.62;101893.72;5037173;28;1672;-64
2021/10/16 12:11:37;;;;;;;;;;;;;;;16.39;71.31;101898.13;5037290;28;1977;-65
2021/10/16 12:14:03;;;;;;;;;;;;;;;16.40;71.20;101889.09;5037343;28;1185;-64
2021/10/16 12:16:28;;;;;;;;;;;;;;;16.45;71.00;101886.06;5037277;28;811;-65
2021/10/16 12:18:53;;;;;;;;;;;;;;;16.47;71.06;101889.50;5037095;28;1434;-64
2021/10/16 12:21:19;;;;;;;;;;;;;;;16.49;71.22;101887.53;5036874;28;934;-64
2021/10/16 12:23:44;;;;;;;;;;;;;;;16.49;70.95;101885.69;5036793;28;1318;-64
2021/10/16 12:26:09;;;;;;;;;;;;;;;16.50;71.16;101883.88;5036679;28;1740;-64
2021/10/16 12:28:34;;;;;;;;;;;;;;;16.57;74.23;101874.38;5036735;28;1732;-65
2021/10/16 12:30:59;;;;;;;;;;;;;;;16.68;76.98;101877.16;5036337;28;1960;-66
2021/10/16 12:33:24;;;;;;;;;;;;;;;16.75;78.34;101878.44;5035456;28;1735;-66
2021/10/16 12:35:49;;;;;;;;;;;;;;;16.83;80.03;101872.50;5035520;28;1765;-66